Time;durP1;ratioP1;P1;durP2;ratioP2;P2;SDS_P1;SDS_P2;PMS_P1;PMS_P2;Temp;Humidity;BMP_temperature;BMP_pressure;BME280_temperature;BME280_humidity;BME280_pressure;Samples;Min_cycle;Max_cycle;Signal;HPM_P1;HPM_P2
2022/06/05 00:01:12;;;;;;;10.67;9.60;;;;;;;15.45;62.27;101872.06;5040107;28;20185;-67
2022/06/05 00:03:44;;;;;;;11.47;10.17;;;;;;;15.04;63.24;101869.97;5039127;28;20414;-67
2022/06/05 00:06:25;;;;;;;11.03;9.93;;;;;;;15.01;64.46;101869.06;5039925;28;20383;-66
2022/06/05 00:09:25;;;;;;;11.77;10.53;;;;;;;14.95;64.55;101872.50;5039244;28;20464;-67
2022/06/05 00:12:03;;;;;;;12.57;10.17;;;;;;;15.23;63.67;101873.63;5038860;28;20451;-67
2022/06/05 00:14:30;;;;;;;10.60;9.60;;;;;;;15.07;64.25;101870.00;5039888;28;20829;-67
2022/06/05 00:16:55;;;;;;;12.97;10.53;;;;;;;14.91;64.65;101865.47;5038720;28;20440;-68
2022/06/05 00:19:21;;;;;;;14.37;11.17;;;;;;;14.97;65.31;101860.28;5055324;28;20400;-67
2022/06/05 00:21:46;;;;;;;13.17;11.47;;;;;;;15.28;64.05;101861.41;5040037;28;20170;-67
2022/06/05 00:24:12;;;;;;;11.30;10.20;;;;;;;15.13;64.77;101864.78;5039553;28;20614;-67
2022/06/05 00:26:51;;;;;;;12.47;11.17;;;;;;;14.79;64.98;101858.38;5039619;28;20173;-68
2022/06/05 00:29:39;;;;;;;13.47;11.47;;;;;;;14.99;65.27;101858.53;5038824;28;20188;-67
2022/06/05 00:32:13;;;;;;;12.73;11.40;;;;;;;14.76;65.32;101843.47;5038687;28;20443;-67
2022/06/05 00:34:39;;;;;;;14.70;10.83;;;;;;;14.99;65.63;101851.56;5038824;28;20433;-68
2022/06/05 00:37:09;;;;;;;12.60;11.30;;;;;;;14.89;65.75;101843.56;5038643;28;20668;-68
2022/06/05 00:40:13;;;;;;;14.00;12.60;;;;;;;14.46;67.29;101847.47;5039325;28;20261;-68
2022/06/05 00:42:39;;;;;;;13.30;12.00;;;;;;;14.17;68.90;101847.13;5027708;28;20416;-68
2022/06/05 00:45:07;;;;;;;12.87;11.60;;;;;;;13.65;70.25;101844.66;5039115;28;20428;-67
2022/06/05 00:47:33;;;;;;;13.60;12.20;;;;;;;14.00;69.79;101840.78;5054937;28;20178;-68
2022/06/05 00:50:04;;;;;;;13.90;12.50;;;;;;;14.17;69.52;101835.75;5039011;28;20422;-66
2022/06/05 00:52:31;;;;;;;12.90;11.57;;;;;;;13.84;70.75;101834.44;5038720;28;20300;-66
2022/06/05 00:54:56;;;;;;;14.13;11.93;;;;;;;14.27;70.33;101835.00;5038893;28;20457;-66
2022/06/05 00:57:22;;;;;;;13.67;12.37;;;;;;;14.15;70.41;101838.34;5038515;28;20416;-67
2022/06/05 00:59:49;;;;;;;14.13;12.60;;;;;;;13.97;71.32;101839.88;5038858;28;20566;-67
2022/06/05 01:02:15;;;;;;;13.93;12.53;;;;;;;14.31;70.20;101837.69;5038201;28;20204;-67
2022/06/05 01:04:43;;;;;;;14.50;13.10;;;;;;;13.91;70.38;101839.81;5039287;28;20512;-66
2022/06/05 01:07:09;;;;;;;13.63;12.23;;;;;;;13.35;73.38;101830.22;5054610;28;20410;-66
2022/06/05 01:09:35;;;;;;;15.27;13.57;;;;;;;13.52;73.26;101834.84;5038822;28;20500;-66
2022/06/05 01:12:09;;;;;;;17.50;13.67;;;;;;;13.47;74.32;101830.44;5039352;28;20507;-66
2022/06/05 01:15:16;;;;;;;14.17;12.63;;;;;;;13.82;72.74;101830.06;5021514;28;20431;-66
2022/06/05 01:17:50;;;;;;;15.50;12.90;;;;;;;13.83;72.31;101833.59;5038217;28;20459;-66
2022/06/05 01:20:38;;;;;;;15.10;13.50;;;;;;;13.88;71.62;101824.03;5037809;28;20419;-67
2022/06/05 01:23:27;;;;;;;17.27;13.90;;;;;;;13.40;74.03;101823.34;5038320;28;20450;-67
2022/06/05 01:26:08;;;;;;;16.80;14.60;;;;;;;13.44;74.55;101816.44;5038380;28;20420;-67
2022/06/05 01:28:38;;;;;;;18.00;16.03;;;;;;;13.77;72.80;101808.19;5037851;28;20449;-67
2022/06/05 01:31:36;;;;;;;15.93;14.33;;;;;;;13.52;74.54;101803.41;5037620;28;20498;-67
2022/06/05 01:34:27;;;;;;;16.00;14.30;;;;;;;13.78;73.27;101809.91;5038416;28;20503;-67
2022/06/05 01:36:57;;;;;;;18.20;14.77;;;;;;;13.62;73.59;101806.19;5037560;28;20436;-66
2022/06/05 01:39:29;;;;;;;15.83;14.17;;;;;;;13.67;73.77;101797.53;5037567;28;20837;-66
2022/06/05 01:42:02;;;;;;;15.17;13.67;;;;;;;13.93;72.88;101798.75;5054086;28;20421;-67
2022/06/05 01:44:32;;;;;;;15.63;13.83;;;;;;;13.69;73.84;101795.81;5053884;28;20434;-66
2022/06/05 01:47:01;;;;;;;14.37;12.97;;;;;;;13.40;74.84;101797.16;5037509;28;20499;-66
2022/06/05 01:49:31;;;;;;;18.37;15.47;;;;;;;13.04;76.41;101794.81;5038050;28;20424;-65
2022/06/05 01:52:00;;;;;;;16.27;14.57;;;;;;;13.27;76.23;101797.78;5037467;28;20522;-66
2022/06/05 01:54:56;;;;;;;14.77;13.17;;;;;;;13.23;76.08;101789.03;5053798;28;20470;-67
2022/06/05 01:57:23;;;;;;;15.53;14.00;;;;;;;13.32;76.00;101785.66;5053338;28;20740;-66
2022/06/05 01:59:53;;;;;;;15.40;13.80;;;;;;;13.08;76.91;101778.28;5037422;28;20831;-66
2022/06/05 02:02:29;;;;;;;16.47;14.80;;;;;;;13.38;75.61;101780.56;5053683;28;20399;-65
2022/06/05 02:05:02;;;;;;;17.37;15.03;;;;;;;13.01;76.72;101784.28;5037195;28;20478;-66
2022/06/05 02:07:49;;;;;;;18.27;15.20;;;;;;;13.06;77.26;101788.75;5053741;28;20391;-67
2022/06/05 02:10:39;;;;;;;16.50;14.70;;;;;;;13.21;76.50;101779.38;5053734;28;20413;-68
2022/06/05 02:13:04;;;;;;;17.53;15.67;;;;;;;13.09;77.45;101785.28;5037211;28;20440;-67
2022/06/05 02:15:30;;;;;;;17.83;15.37;;;;;;;12.62;78.63;101786.25;5038354;28;20380;-67
2022/06/05 02:17:56;;;;;;;19.00;16.00;;;;;;;13.01;78.64;101779.06;5037551;28;20233;-67
2022/06/05 02:20:22;;;;;;;17.53;14.73;;;;;;;12.69;78.76;101779.38;5037848;28;20182;-66
2022/06/05 02:22:49;;;;;;;17.17;15.07;;;;;;;12.97;78.09;101773.78;5037985;28;20403;-67
2022/06/05 02:25:19;;;;;;;17.60;14.73;;;;;;;13.02;78.52;101781.69;5037137;28;20216;-67
2022/06/05 02:27:45;;;;;;;17.43;15.50;;;;;;;12.78;78.51;101775.19;5037945;28;20424;-67
2022/06/05 02:30:12;;;;;;;17.23;15.10;;;;;;;12.84;78.58;101761.34;5038194;28;20482;-66
2022/06/05 02:32:49;;;;;;;17.13;15.23;;;;;;;12.58;78.73;101763.50;5036801;28;20216;-67
2022/06/05 02:35:36;;;;;;;23.27;18.87;;;;;;;12.86;78.68;101761.38;5036973;28;20470;-66
2022/06/05 02:38:07;;;;;;;19.40;16.17;;;;;;;12.84;78.22;101776.16;5037131;28;20833;-69
2022/06/05 02:40:59;;;;;;;17.30;15.33;;;;;;;12.78;79.28;101783.03;5037808;28;20421;-67
2022/06/05 02:43:45;;;;;;;16.73;15.03;;;;;;;13.13;78.21;101781.88;5036744;28;20449;-67
2022/06/05 02:46:25;;;;;;;17.67;14.93;;;;;;;13.21;76.89;101784.63;5037101;28;20403;-68
2022/06/05 02:48:55;;;;;;;15.87;13.80;;;;;;;12.91;77.18;101772.78;5036972;28;20833;-67
2022/06/05 02:51:26;;;;;;;16.77;15.00;;;;;;;12.88;78.05;101760.53;5036932;28;20438;-67
2022/06/05 02:53:56;;;;;;;18.40;15.20;;;;;;;12.62;79.00;101765.31;5036792;28;20399;-67
2022/06/05 02:56:23;;;;;;;18.47;15.30;;;;;;;12.84;78.72;101769.19;5036828;28;20395;-67
2022/06/05 02:58:49;;;;;;;18.97;15.20;;;;;;;12.96;78.01;101764.16;5037596;28;20445;-66
2022/06/05 03:03:59;;;;;;;16.43;14.57;;;;;;;12.73;78.96;101771.63;5037378;28;20797;-65
2022/06/05 03:06:28;;;;;;;18.10;15.80;;;;;;;12.69;79.59;101767.19;5040689;28;20391;-66
2022/06/05 03:08:53;;;;;;;16.47;14.37;;;;;;;12.54;79.34;101762.59;5041132;28;20539;-67
2022/06/05 03:11:18;;;;;;;17.60;14.57;;;;;;;12.66;79.26;101766.25;5040946;28;20439;-66
2022/06/05 03:13:44;;;;;;;18.33;15.40;;;;;;;12.43;79.80;101777.19;5041200;28;20178;-66
2022/06/05 03:16:09;;;;;;;16.70;14.90;;;;;;;12.78;78.13;101777.78;5040804;28;20170;-67
2022/06/05 03:18:35;;;;;;;16.03;14.27;;;;;;;13.07;78.18;101781.75;5040986;28;20181;-67
2022/06/05 03:21:00;;;;;;;16.67;14.97;;;;;;;13.72;75.56;101770.53;5041155;28;20194;-66
2022/06/05 03:23:26;;;;;;;16.13;14.40;;;;;;;13.08;76.26;101775.66;5040576;28;20201;-66
2022/06/05 03:25:51;;;;;;;18.33;14.50;;;;;;;13.02;76.90;101767.75;5040796;28;20178;-67
2022/06/05 03:28:17;;;;;;;17.23;14.70;;;;;;;13.29;76.31;101762.03;5041076;28;20216;-67
2022/06/05 03:30:43;;;;;;;16.77;14.90;;;;;;;13.01;76.70;101765.97;5040497;28;20174;-67
2022/06/05 03:33:09;;;;;;;16.53;14.80;;;;;;;13.29;75.74;101757.66;5040388;28;20442;-67
2022/06/05 03:35:37;;;;;;;16.77;14.60;;;;;;;13.99;73.65;101766.50;5040924;28;20193;-66
2022/06/05 03:38:04;;;;;;;18.73;15.00;;;;;;;13.96;73.80;101769.06;5040469;28;20399;-66
2022/06/05 03:40:29;;;;;;;15.47;13.97;;;;;;;14.48;71.66;101769.66;5040744;28;20416;-66
2022/06/05 03:42:55;;;;;;;15.37;13.77;;;;;;;15.96;67.03;101755.81;5040939;28;20421;-65
2022/06/05 03:45:20;;;;;;;14.70;12.30;;;;;;;15.43;67.09;101752.91;5040398;28;20253;-66
2022/06/05 03:47:46;;;;;;;13.53;12.03;;;;;;;16.90;62.56;101745.50;5040197;28;20185;-66
2022/06/05 03:50:12;;;;;;;13.50;12.20;;;;;;;16.25;63.85;101741.88;5040533;28;20170;-67
2022/06/05 03:52:38;;;;;;;14.97;13.37;;;;;;;15.78;64.11;101748.72;5040017;28;20210;-67
2022/06/05 03:55:04;;;;;;;12.87;11.67;;;;;;;16.80;60.38;101746.31;5040201;28;20425;-66
2022/06/05 03:57:29;;;;;;;12.00;10.80;;;;;;;17.59;58.84;101747.09;5039802;28;20578;-66
2022/06/05 03:59:55;;;;;;;13.00;11.70;;;;;;;18.01;57.59;101739.06;5040163;28;20681;-67
2022/06/05 04:02:20;;;;;;;13.17;11.97;;;;;;;18.12;57.64;101731.94;5039192;28;20257;-67
2022/06/05 04:04:45;;;;;;;12.10;10.80;;;;;;;17.96;56.84;101732.91;5040349;28;20421;-67
2022/06/05 04:07:11;;;;;;;11.90;10.70;;;;;;;18.80;55.51;101726.16;5040013;28;20257;-67
2022/06/05 04:09:36;;;;;;;13.27;10.67;;;;;;;18.58;55.58;101732.50;5039890;28;20178;-66
2022/06/05 04:12:02;;;;;;;11.93;10.83;;;;;;;18.81;54.99;101727.06;5040341;28;20584;-67
2022/06/05 04:14:27;;;;;;;13.10;11.80;;;;;;;17.94;56.17;101739.94;5039799;28;20204;-67
2022/06/05 04:16:53;;;;;;;12.27;11.07;;;;;;;17.89;57.52;101745.22;5037777;28;20229;-67
2022/06/05 04:19:20;;;;;;;12.30;11.10;;;;;;;19.18;54.97;101727.59;5040303;28;20516;-67
2022/06/05 04:21:47;;;;;;;15.47;11.40;;;;;;;19.41;52.90;101729.09;5039740;28;20174;-67
2022/06/05 04:24:15;;;;;;;14.07;11.60;;;;;;;20.77;49.90;101716.66;5039340;28;20484;-67
2022/06/05 04:26:41;;;;;;;12.63;11.43;;;;;;;19.43;51.82;101737.00;5039814;28;20459;-67
2022/06/05 04:29:07;;;;;;;12.70;11.40;;;;;;;20.90;49.47;101727.91;5022150;28;20440;-67
2022/06/05 04:31:36;;;;;;;11.77;10.63;;;;;;;19.70;51.84;101725.25;5039212;28;20889;-68
2022/06/05 04:34:04;;;;;;;11.77;10.57;;;;;;;19.96;51.59;101716.13;5039600;28;20410;-68
2022/06/05 04:36:30;;;;;;;11.40;10.40;;;;;;;20.32;50.87;101716.47;5039287;28;20675;-67
2022/06/05 04:38:55;;;;;;;12.90;10.70;;;;;;;21.28;48.33;101699.78;5039673;28;20474;-67
2022/06/05 04:41:21;;;;;;;11.47;10.47;;;;;;;21.10;48.65;101700.16;5039033;28;20173;-67
2022/06/05 04:43:48;;;;;;;10.57;9.67;;;;;;;21.15;48.73;101696.53;5038249;28;20269;-66
2022/06/05 04:46:16;;;;;;;11.00;10.00;;;;;;;21.42;47.48;101694.22;5039310;28;20428;-67
2022/06/05 04:48:41;;;;;;;11.40;10.47;;;;;;;20.12;50.46;101704.41;5038794;28;20437;-68
2022/06/05 04:51:08;;;;;;;12.13;10.17;;;;;;;20.40;50.27;101698.69;5038903;28;20452;-67
2022/06/05 04:53:34;;;;;;;11.37;10.43;;;;;;;20.48;50.14;101696.78;5038996;28;20170;-66
2022/06/05 04:56:04;;;;;;;11.10;10.00;;;;;;;21.52;48.07;101695.78;5039577;28;20488;-67
2022/06/05 04:58:29;;;;;;;10.90;9.90;;;;;;;21.23;48.57;101684.88;5039005;28;20420;-67
2022/06/05 05:00:54;;;;;;;10.93;9.83;;;;;;;22.51;45.69;101679.44;5038985;28;20405;-67
2022/06/05 05:03:20;;;;;;;10.83;9.93;;;;;;;22.51;44.74;101672.31;5039298;28;20169;-68
2022/06/05 05:05:45;;;;;;;12.60;11.30;;;;;;;23.35;43.95;101657.69;5038927;28;20451;-68
2022/06/05 05:08:10;;;;;;;10.20;9.30;;;;;;;23.09;43.74;101663.69;5038039;28;20459;-69
2022/06/05 05:10:36;;;;;;;11.83;10.63;;;;;;;22.11;45.92;101673.28;5039238;28;20174;-69
2022/06/05 05:13:01;;;;;;;11.97;10.83;;;;;;;22.05;46.42;101668.09;5038493;28;20189;-67
2022/06/05 05:15:26;;;;;;;11.27;10.30;;;;;;;20.69;48.70;101676.19;5038806;28;20166;-67
2022/06/05 05:17:52;;;;;;;10.23;9.33;;;;;;;22.54;45.39;101664.28;5038429;28;20344;-67
2022/06/05 05:20:17;;;;;;;11.03;10.03;;;;;;;24.66;40.89;101657.13;5034461;28;20189;-67
2022/06/05 05:22:42;;;;;;;10.00;9.20;;;;;;;20.33;48.88;101668.78;5018934;28;20277;-67
2022/06/05 05:25:10;;;;;;;10.77;9.77;;;;;;;22.91;44.33;101653.56;5025227;28;20321;-68
2022/06/05 05:27:36;;;;;;;9.53;8.73;;;;;;;21.98;44.86;101662.06;5038218;28;20201;-68
2022/06/05 05:30:05;;;;;;;9.40;8.60;;;;;;;21.94;45.39;101659.53;5038900;28;20500;-67
2022/06/05 05:32:31;;;;;;;9.53;8.73;;;;;;;23.84;41.79;101650.00;5037487;28;20479;-68
2022/06/05 05:34:56;;;;;;;10.20;9.37;;;;;;;23.37;41.75;101652.31;5038463;28;20424;-68
2022/06/05 05:37:22;;;;;;;10.20;9.30;;;;;;;22.66;43.72;101671.06;5031596;28;20177;-68
2022/06/05 05:42:32;;;;;;;9.77;8.97;;;;;;;24.60;39.32;101641.31;5051126;28;20220;-68
2022/06/05 05:44:58;;;;;;;9.53;8.73;;;;;;;23.18;41.62;101641.34;5058108;28;20825;-68
2022/06/05 05:47:27;;;;;;;9.77;8.93;;;;;;;24.21;40.14;101634.63;5058153;28;20446;-69
2022/06/05 05:50:01;;;;;;;10.20;9.20;;;;;;;22.54;43.76;101645.69;5057964;28;20474;-68
2022/06/05 05:52:27;;;;;;;10.93;9.97;;;;;;;24.58;39.56;101625.38;5057187;28;20470;-68
2022/06/05 05:54:53;;;;;;;10.37;9.47;;;;;;;25.44;37.97;101628.53;5057949;28;20830;-69
2022/06/05 05:57:19;;;;;;;9.90;9.10;;;;;;;23.94;40.56;101637.28;5058111;28;20431;-69
2022/06/05 05:59:44;;;;;;;10.90;10.00;;;;;;;25.11;37.44;101635.06;5057452;28;20431;-68
2022/06/05 06:02:13;;;;;;;9.53;8.73;;;;;;;25.92;36.66;101629.31;5058241;28;20419;-68
2022/06/05 06:04:40;;;;;;;9.43;8.63;;;;;;;26.03;36.57;101627.09;5057964;28;20268;-69
2022/06/05 06:07:05;;;;;;;8.50;7.80;;;;;;;25.96;36.19;101639.81;5057891;28;20412;-69
2022/06/05 06:09:33;;;;;;;9.30;8.40;;;;;;;24.83;37.93;101636.06;5058477;28;20432;-69
2022/06/05 06:11:58;;;;;;;8.97;8.07;;;;;;;25.56;37.38;101638.75;5057810;28;20559;-69
2022/06/05 06:14:24;;;;;;;8.20;7.60;;;;;;;25.28;37.24;101649.59;5057803;28;20420;-69
2022/06/05 06:16:49;;;;;;;9.00;8.20;;;;;;;25.72;37.25;101644.34;5057990;28;20218;-69
2022/06/05 06:19:15;;;;;;;9.63;8.73;;;;;;;25.32;37.86;101648.53;5057969;28;20174;-69
2022/06/05 06:21:40;;;;;;;8.70;7.90;;;;;;;26.23;35.53;101648.50;5057894;28;20178;-68
2022/06/05 06:24:05;;;;;;;8.33;7.63;;;;;;;26.10;36.16;101655.31;5057585;28;20239;-68
2022/06/05 06:26:31;;;;;;;8.50;7.70;;;;;;;26.99;34.28;101649.78;5057659;28;20177;-67
2022/06/05 06:28:56;;;;;;;8.60;7.90;;;;;;;24.50;38.99;101662.94;5050357;28;20257;-65
2022/06/05 06:31:22;;;;;;;9.57;8.67;;;;;;;24.22;39.19;101657.69;5037390;28;20210;-67
2022/06/05 06:33:48;;;;;;;8.27;7.60;;;;;;;26.20;35.97;101643.31;5037461;28;20208;-66
2022/06/05 06:36:15;;;;;;;8.70;7.90;;;;;;;26.18;35.95;101637.16;5038243;28;20167;-66
2022/06/05 06:38:41;;;;;;;7.50;6.90;;;;;;;25.95;36.51;101650.56;5037536;28;20425;-67
2022/06/05 06:41:10;;;;;;;8.60;7.33;;;;;;;25.54;36.64;101641.44;5040579;28;20562;-65
2022/06/05 06:43:36;;;;;;;8.37;7.53;;;;;;;26.64;35.53;101644.13;5041129;28;20220;-67
2022/06/05 06:46:02;;;;;;;8.23;7.53;;;;;;;27.39;34.05;101627.41;5041390;28;20433;-66
2022/06/05 06:48:28;;;;;;;8.63;7.83;;;;;;;27.73;33.62;101628.47;5041444;28;20174;-66
2022/06/05 06:50:54;;;;;;;9.13;7.70;;;;;;;26.08;36.03;101637.63;5041860;28;20698;-66
2022/06/05 06:53:20;;;;;;;7.80;7.10;;;;;;;27.27;33.74;101629.78;5041251;28;20178;-66
2022/06/05 06:55:46;;;;;;;8.77;8.07;;;;;;;27.70;32.35;101628.63;5040732;28;20440;-67
2022/06/05 06:58:12;;;;;;;8.27;7.57;;;;;;;26.49;34.94;101637.66;5041795;28;20873;-67
2022/06/05 07:00:37;;;;;;;8.60;7.30;;;;;;;26.30;34.74;101642.91;5041280;28;20213;-66
2022/06/05 07:03:03;;;;;;;7.93;7.13;;;;;;;26.12;35.17;101634.75;5040795;28;20261;-66
2022/06/05 07:05:28;;;;;;;7.53;6.73;;;;;;;26.07;34.99;101627.84;5041620;28;20213;-67
2022/06/05 07:07:54;;;;;;;8.37;7.53;;;;;;;27.35;33.11;101630.28;5040949;28;20249;-66
2022/06/05 07:10:19;;;;;;;7.17;6.50;;;;;;;28.71;30.73;101620.94;5040793;28;20171;-65
2022/06/05 07:12:44;;;;;;;8.70;7.23;;;;;;;28.01;31.38;101620.91;5041193;28;20245;-66
2022/06/05 07:15:10;;;;;;;7.53;6.80;;;;;;;27.45;32.53;101625.38;5040906;28;20170;-68
2022/06/05 07:17:36;;;;;;;6.97;6.37;;;;;;;25.41;35.10;101616.19;5040681;28;20221;-69
2022/06/05 07:20:02;;;;;;;7.80;7.10;;;;;;;27.13;32.97;101604.53;5040446;28;20177;-67
2022/06/05 07:22:27;;;;;;;7.30;6.70;;;;;;;28.40;31.20;101609.09;5040657;28;20206;-67
2022/06/05 07:24:53;;;;;;;6.60;6.00;;;;;;;28.45;30.92;101608.88;5040629;28;20452;-69
2022/06/05 07:27:19;;;;;;;6.60;6.00;;;;;;;27.64;31.41;101607.47;5041048;28;20473;-68
2022/06/05 07:29:44;;;;;;;6.40;5.80;;;;;;;25.49;35.11;101606.09;5040608;28;20174;-68
2022/06/05 07:32:11;;;;;;;6.37;5.77;;;;;;;27.64;32.18;101598.59;5040387;28;20461;-68
2022/06/05 07:34:37;;;;;;;6.40;5.80;;;;;;;25.37;35.15;101596.75;5040822;28;20177;-69
2022/06/05 07:37:03;;;;;;;6.33;5.70;;;;;;;26.88;33.36;101592.25;5040217;28;20421;-62
2022/06/05 07:39:29;;;;;;;6.13;5.63;;;;;;;28.31;32.36;101588.16;5040373;28;20436;-64
2022/06/05 07:41:58;;;;;;;6.43;5.87;;;;;;;29.11;30.56;101578.53;5040801;28;20209;-64
2022/06/05 07:44:25;;;;;;;6.53;5.93;;;;;;;25.06;36.26;101597.03;5040306;28;20723;-66
2022/06/05 07:46:50;;;;;;;6.57;5.90;;;;;;;27.70;32.40;101579.56;5040375;28;20429;-69
2022/06/05 07:49:16;;;;;;;6.00;5.40;;;;;;;27.69;31.09;101585.84;5040680;28;20409;-68
2022/06/05 07:54:27;;;;;;;6.57;5.87;;;;;;;25.57;33.58;101581.72;5039843;28;20192;-67
2022/06/05 07:56:56;;;;;;;6.03;5.43;;;;;;;28.31;30.15;101566.69;5040167;28;20417;-68
2022/06/05 07:59:22;;;;;;;7.20;5.50;;;;;;;28.65;29.61;101571.16;5039899;28;20475;-67
2022/06/05 08:01:47;;;;;;;5.63;5.13;;;;;;;28.71;29.32;101562.78;5040261;28;20675;-66
2022/06/05 08:04:13;;;;;;;5.37;4.90;;;;;;;28.97;29.29;101567.66;5039822;28;20174;-69
2022/06/05 08:06:39;;;;;;;6.30;5.70;;;;;;;28.39;29.58;101569.84;5040026;28;20225;-70
2022/06/05 08:09:07;;;;;;;5.50;5.00;;;;;;;28.28;29.81;101577.56;5040217;28;20178;-70
2022/06/05 08:11:34;;;;;;;5.57;5.07;;;;;;;29.88;28.56;101568.81;5039637;28;20734;-70
2022/06/05 08:14:00;;;;;;;5.90;5.30;;;;;;;29.00;29.61;101557.66;5039675;28;20451;-68
2022/06/05 08:16:26;;;;;;;7.63;6.00;;;;;;;30.24;27.51;101558.63;5048771;28;20601;-67
2022/06/05 08:18:52;;;;;;;5.60;5.10;;;;;;;29.99;28.13;101564.66;5059093;28;20514;-68
2022/06/05 08:21:21;;;;;;;5.87;5.30;;;;;;;29.37;28.80;101565.47;5058819;28;20169;-68
2022/06/05 08:23:47;;;;;;;5.90;5.40;;;;;;;31.49;26.01;101555.38;5059105;28;20427;-68
2022/06/05 08:26:13;;;;;;;6.07;5.47;;;;;;;32.13;25.69;101550.16;5041259;28;20421;-68
2022/06/05 08:28:39;;;;;;;5.90;5.40;;;;;;;32.06;24.88;101551.56;5040022;28;20174;-68
2022/06/05 08:31:04;;;;;;;5.77;5.27;;;;;;;29.10;28.17;101558.00;5022068;28;20452;-70
2022/06/05 08:33:29;;;;;;;5.57;5.00;;;;;;;28.88;28.78;101561.00;5039395;28;20178;-68
2022/06/05 08:35:55;;;;;;;5.60;5.00;;;;;;;28.47;29.06;101561.38;5039721;28;20198;-68
2022/06/05 08:44:02;;;;;;;5.30;4.80;;;;;;;29.84;26.91;101552.94;5039156;28;20408;-68
2022/06/05 08:46:40;;;;;;;4.90;4.43;;;;;;;29.34;27.69;101555.78;5038588;28;20413;-70
2022/06/05 08:49:11;;;;;;;4.97;4.57;;;;;;;29.92;26.81;101557.88;5039121;28;20704;-68
2022/06/05 08:51:53;;;;;;;6.53;4.57;;;;;;;28.95;27.89;101561.53;5038952;28;20471;-67
2022/06/05 08:54:37;;;;;;;5.30;4.80;;;;;;;29.89;27.08;101556.25;5038785;28;20838;-68
2022/06/05 08:57:08;;;;;;;5.20;4.70;;;;;;;30.64;25.60;101548.16;5038341;28;20425;-67
2022/06/05 08:59:51;;;;;;;5.00;4.60;;;;;;;26.55;30.06;101560.72;5038153;28;20539;-68
2022/06/05 09:02:35;;;;;;;5.13;4.63;;;;;;;28.99;27.43;101550.53;5038094;28;20413;-67
2022/06/05 09:05:05;;;;;;;5.93;4.53;;;;;;;28.65;28.48;101546.16;5038715;28;20410;-68
2022/06/05 09:07:50;;;;;;;5.33;4.90;;;;;;;29.54;26.73;101530.47;5037890;28;20744;-68
2022/06/05 09:10:39;;;;;;;4.97;4.57;;;;;;;30.97;25.61;101519.19;5038567;28;20519;-68
2022/06/05 09:13:44;;;;;;;5.87;5.13;;;;;;;28.97;27.64;101530.97;5037764;28;20464;-67
2022/06/05 09:16:16;;;;;;;4.80;4.40;;;;;;;27.03;29.51;101533.63;5037639;28;20436;-68
2022/06/05 09:18:46;;;;;;;5.23;4.60;;;;;;;28.89;27.01;101515.28;5038888;28;20425;-69
2022/06/05 09:21:36;;;;;;;4.50;4.10;;;;;;;29.41;27.08;101516.00;5037889;28;20436;-68
2022/06/05 09:24:05;;;;;;;4.90;4.50;;;;;;;29.96;25.64;101511.03;5038545;28;20869;-70
2022/06/05 09:26:56;;;;;;;5.47;4.50;;;;;;;29.31;27.10;101514.78;5037554;28;20420;-69
2022/06/05 09:29:21;;;;;;;5.93;4.50;;;;;;;29.96;25.80;101503.84;5038322;28;20397;-69
2022/06/05 09:32:12;;;;;;;4.87;4.37;;;;;;;28.39;27.55;101500.97;5038125;28;20464;-70
2022/06/05 09:34:48;;;;;;;5.20;4.67;;;;;;;28.04;27.94;101492.97;5037641;28;20170;-68
2022/06/05 09:37:17;;;;;;;5.27;4.77;;;;;;;28.36;27.90;101487.72;5038346;28;20664;-68
2022/06/05 09:39:48;;;;;;;4.60;4.10;;;;;;;29.27;27.11;101468.47;5037538;28;20409;-68
2022/06/05 09:42:41;;;;;;;5.23;4.60;;;;;;;27.30;29.80;101464.50;5037901;28;20437;-68
2022/06/05 09:45:33;;;;;;;5.20;4.50;;;;;;;27.55;29.02;101449.94;5038042;28;20460;-67
2022/06/05 09:48:19;;;;;;;4.57;4.10;;;;;;;25.94;30.82;101457.34;5037945;28;20420;-67
2022/06/05 09:50:45;;;;;;;5.50;5.00;;;;;;;27.17;29.81;101452.66;5037951;28;20458;-67
2022/06/05 09:53:32;;;;;;;5.10;4.70;;;;;;;27.30;29.87;101444.91;5037780;28;20420;-68
2022/06/05 09:55:59;;;;;;;4.77;4.37;;;;;;;27.54;29.42;101443.69;5037887;28;20178;-68
2022/06/05 09:58:46;;;;;;;5.07;4.57;;;;;;;27.99;28.38;101425.31;5037532;28;20470;-69
2022/06/05 10:01:22;;;;;;;6.33;4.93;;;;;;;27.11;29.84;101413.69;5037949;28;20408;-68
2022/06/05 10:03:48;;;;;;;5.30;4.80;;;;;;;25.21;32.34;101419.44;5037814;28;20511;-68
2022/06/05 10:06:38;;;;;;;5.03;4.60;;;;;;;26.61;30.32;101406.25;5038264;28;20432;-70
2022/06/05 10:09:08;;;;;;;5.40;4.90;;;;;;;25.27;32.51;101418.31;5037738;28;20185;-68
2022/06/05 10:11:48;;;;;;;5.30;4.80;;;;;;;24.35;33.78;101412.97;5037117;28;20866;-69
2022/06/05 10:14:25;;;;;;;5.40;4.90;;;;;;;26.85;30.37;101390.88;5036999;28;20417;-68
2022/06/05 10:17:03;;;;;;;5.17;4.70;;;;;;;26.65;30.34;101395.34;5041110;28;20461;-69
2022/06/05 10:19:50;;;;;;;5.33;4.83;;;;;;;25.47;33.20;101407.72;5040954;28;20423;-69
2022/06/05 10:22:26;;;;;;;5.40;4.90;;;;;;;25.39;33.19;101412.50;5041705;28;20814;-69
2022/06/05 10:25:30;;;;;;;5.73;5.00;;;;;;;26.33;31.50;101404.88;5041216;28;20448;-69
2022/06/05 10:27:59;;;;;;;6.97;4.20;;;;;;;28.04;30.35;101392.94;5041254;28;20844;-70
2022/06/05 10:30:30;;;;;;;5.77;5.27;;;;;;;29.39;27.62;101395.22;5041522;28;20467;-70
2022/06/05 10:33:24;;;;;;;5.33;4.83;;;;;;;30.01;26.74;101390.66;5041280;28;20712;-70
2022/06/05 10:36:02;;;;;;;5.70;5.20;;;;;;;29.47;27.50;101394.78;5040880;28;20512;-69
2022/06/05 10:38:36;;;;;;;4.90;4.50;;;;;;;27.36;30.06;101396.38;5040975;28;20516;-68
2022/06/05 10:41:16;;;;;;;5.10;4.70;;;;;;;27.09;29.93;101393.28;5024392;28;20477;-68
2022/06/05 10:43:42;;;;;;;6.50;5.07;;;;;;;28.89;28.00;101366.81;5041115;28;20531;-68
2022/06/05 10:46:19;;;;;;;6.40;5.53;;;;;;;29.56;27.13;101361.09;5041225;28;20515;-69
2022/06/05 10:48:53;;;;;;;5.40;4.90;;;;;;;29.99;26.42;101363.00;5041315;28;20252;-69
2022/06/05 10:51:37;;;;;;;5.70;5.17;;;;;;;26.22;30.37;101375.97;5040648;28;20474;-69
2022/06/05 10:54:15;;;;;;;5.60;5.10;;;;;;;28.38;28.87;101364.28;5041069;28;20417;-70
2022/06/05 10:57:02;;;;;;;5.73;5.27;;;;;;;27.02;30.50;101368.63;5041079;28;20739;-69
2022/06/05 10:59:33;;;;;;;5.87;5.07;;;;;;;28.08;28.13;101361.47;5036362;28;20432;-67
2022/06/05 11:02:26;;;;;;;5.17;4.73;;;;;;;27.94;30.00;101354.13;5036667;28;20814;-69
2022/06/05 11:05:26;;;;;;;5.50;5.00;;;;;;;27.99;29.53;101354.75;5037170;28;20410;-69
2022/06/05 11:07:54;;;;;;;5.60;5.10;;;;;;;28.28;28.20;101355.00;5035702;28;20482;-70
2022/06/05 11:13:39;;;;;;;5.30;4.90;;;;;;;28.35;29.17;101368.00;5039976;28;20455;-72
2022/06/05 11:16:19;;;;;;;5.50;5.00;;;;;;;29.26;27.89;101366.50;5040516;28;20417;-68
2022/06/05 11:19:08;;;;;;;5.80;5.30;;;;;;;27.52;29.89;101370.59;5035656;28;20426;-68
2022/06/05 11:21:34;;;;;;;4.97;4.50;;;;;;;29.01;27.43;101367.91;5020381;28;20422;-68
2022/06/05 11:24:00;;;;;;;7.27;5.27;;;;;;;27.79;29.23;101374.59;5020136;28;20425;-68
2022/06/05 11:26:53;;;;;;;5.30;4.90;;;;;;;25.72;32.04;101369.25;5019890;28;20842;-69
2022/06/05 11:29:27;;;;;;;5.97;5.27;;;;;;;27.30;29.75;101369.94;5020582;28;20183;-67
2022/06/05 11:32:25;;;;;;;5.90;5.40;;;;;;;25.43;32.40;101371.41;5019956;28;20553;-68
2022/06/05 11:34:57;;;;;;;5.67;5.17;;;;;;;25.29;32.82;101377.31;5019993;28;20724;-68
2022/06/05 11:37:56;;;;;;;5.40;4.90;;;;;;;26.62;31.25;101357.19;5029033;28;20401;-68
2022/06/05 11:40:34;;;;;;;6.27;5.20;;;;;;;26.73;31.32;101349.53;5039902;28;20743;-68
2022/06/05 11:43:22;;;;;;;5.67;5.17;;;;;;;27.06;29.72;101346.13;5039726;28;20417;-67
2022/06/05 11:46:01;;;;;;;5.53;4.93;;;;;;;26.77;29.60;101335.06;5023271;28;20881;-68
2022/06/05 11:48:32;;;;;;;7.73;5.23;;;;;;;25.42;32.03;101342.97;5028467;28;20422;-67
2022/06/05 11:51:05;;;;;;;6.27;5.40;;;;;;;26.01;31.48;101340.38;5019703;28;20432;-67
2022/06/05 11:53:51;;;;;;;5.33;4.83;;;;;;;25.83;31.61;101324.25;5044662;28;20436;-68